createdAt,value
2024-03-02T00:00:24.279Z,63.50
2024-03-02T00:05:26.360Z,77.00
2024-03-02T00:10:41.638Z,77.20
2024-03-02T00:16:06.920Z,100.20
2024-03-02T00:21:14.639Z,72.00
2024-03-02T00:26:17.384Z,74.20
2024-03-02T00:31:21.434Z,74.60
2024-03-02T00:36:28.146Z,61.90
2024-03-02T00:41:31.992Z,79.10
2024-03-02T00:46:38.510Z,79.00
2024-03-02T00:51:41.020Z,83.10
2024-03-02T00:56:44.136Z,80.70
2024-03-02T01:01:46.292Z,80.80
2024-03-02T01:06:49.322Z,80.10
2024-03-02T01:11:51.398Z,74.60
2024-03-02T01:16:53.890Z,56.70
2024-03-02T01:21:55.846Z,73.50
2024-03-02T01:26:58.061Z,77.70
2024-03-02T01:31:59.869Z,79.80
2024-03-02T01:37:01.774Z,73.90
2024-03-02T01:42:03.799Z,63.80
2024-03-02T01:47:05.886Z,66.00
2024-03-02T01:52:08.849Z,64.60
2024-03-02T01:57:11.187Z,105.50
2024-03-02T02:02:13.059Z,90.90
2024-03-02T02:07:15.873Z,85.40
2024-03-02T02:12:17.911Z,80.40
2024-03-02T02:17:20.648Z,72.40
2024-03-02T02:22:22.858Z,82.50
2024-03-02T02:27:24.860Z,80.50
2024-03-02T02:32:26.793Z,64.40
2024-03-02T02:37:28.597Z,78.60
2024-03-02T02:42:30.595Z,77.40
2024-03-02T02:47:35.091Z,85.40
2024-03-02T02:52:41.274Z,78.70
2024-03-02T02:57:45.287Z,67.80
2024-03-02T03:02:50.294Z,75.70
2024-03-02T03:08:02.792Z,71.80
2024-03-02T03:13:04.949Z,101.30
2024-03-02T03:18:09.021Z,97.20
2024-03-02T03:23:11.093Z,77.90
2024-03-02T03:28:12.891Z,57.00
2024-03-02T03:33:15.533Z,68.50
2024-03-02T03:38:17.579Z,83.60
2024-03-02T03:43:19.528Z,92.30
2024-03-02T03:48:21.561Z,65.00
2024-03-02T03:53:23.799Z,61.90
2024-03-02T03:58:25.790Z,65.40
2024-03-02T04:03:27.691Z,58.70
2024-03-02T04:08:29.580Z,89.70
2024-03-02T04:13:31.535Z,76.00
2024-03-02T04:18:33.814Z,65.40
2024-03-02T04:23:35.693Z,72.30
2024-03-02T04:28:37.608Z,72.30
2024-03-02T04:33:39.787Z,88.60
2024-03-02T04:38:41.695Z,100.10
2024-03-02T04:43:43.629Z,94.90
2024-03-02T04:48:46.041Z,97.70
2024-03-02T04:53:48.114Z,78.20
2024-03-02T04:58:50.317Z,106.40
2024-03-02T05:03:52.435Z,99.90
2024-03-02T05:08:54.659Z,80.90
2024-03-02T05:13:57.083Z,91.50
2024-03-02T05:18:59.072Z,87.00
2024-03-02T05:24:01.349Z,101.00
2024-03-02T05:29:04.344Z,77.70
2024-03-02T05:34:06.937Z,79.40
2024-03-02T05:39:10.646Z,174.30
2024-03-02T05:44:13.781Z,121.70
2024-03-02T05:49:15.745Z,70.10
2024-03-02T05:54:17.497Z,63.30
2024-03-02T05:59:19.497Z,71.10
2024-03-02T06:04:21.477Z,96.60
2024-03-02T06:09:25.849Z,61.20
2024-03-02T06:14:27.898Z,56.90
2024-03-02T06:19:29.982Z,54.10
2024-03-02T06:24:31.919Z,57.00
2024-03-02T06:29:35.024Z,74.20
2024-03-02T06:34:36.864Z,69.90
2024-03-02T06:39:38.857Z,68.90
2024-03-02T06:44:40.821Z,76.00
2024-03-02T06:49:50.994Z,56.40
2024-03-02T06:54:52.964Z,68.40
2024-03-02T06:59:59.997Z,77.60
2024-03-02T07:05:02.263Z,64.30
2024-03-02T07:10:06.077Z,69.70
2024-03-02T07:15:08.805Z,70.30
2024-03-02T07:20:13.796Z,79.90
2024-03-02T07:30:21.123Z,90.00
2024-03-02T07:35:27.986Z,76.40
2024-03-02T07:40:30.199Z,59.70
2024-03-02T07:45:32.828Z,75.80
2024-03-02T07:50:36.235Z,75.10
2024-03-02T07:55:38.156Z,73.50
2024-03-02T08:00:41.712Z,77.00
2024-03-02T08:10:45.956Z,90.80
2024-03-02T08:15:48.084Z,64.30
2024-03-02T08:20:50.121Z,61.90
2024-03-02T08:25:52.301Z,61.20
2024-03-02T08:30:54.524Z,67.40
2024-03-02T08:35:58.237Z,57.20
2024-03-02T08:46:02.319Z,65.60
2024-03-02T08:51:07.330Z,56.90
2024-03-02T08:56:09.388Z,77.40
2024-03-02T09:01:12.430Z,62.70
2024-03-02T09:06:15.155Z,64.00
2024-03-02T09:11:17.416Z,62.20
2024-03-02T09:16:19.316Z,66.90
2024-03-02T09:21:21.211Z,62.70
2024-03-02T09:26:23.730Z,62.60
2024-03-02T09:31:25.608Z,56.60
2024-03-02T09:36:27.494Z,59.00
2024-03-02T09:41:29.613Z,57.10
2024-03-02T09:46:31.697Z,56.40
2024-03-02T09:51:33.902Z,51.90
2024-03-02T09:56:35.830Z,51.10
2024-03-02T10:01:37.798Z,49.80
2024-03-02T10:06:39.661Z,52.60
2024-03-02T10:11:41.606Z,55.60
2024-03-02T10:16:44.976Z,60.90
2024-03-02T10:26:50.591Z,55.40
2024-03-02T10:31:54.034Z,52.60
2024-03-02T10:36:57.188Z,54.40
2024-03-02T10:42:00.100Z,50.10
2024-03-02T10:47:17.419Z,44.90
2024-03-02T10:52:24.593Z,51.30
2024-03-02T10:57:34.266Z,51.60
2024-03-02T11:02:40.345Z,48.70
2024-03-02T11:08:33.943Z,54.40
2024-03-02T11:13:38.672Z,54.40
2024-03-02T11:18:43.151Z,50.10
2024-03-02T11:23:45.511Z,44.80
2024-03-02T11:28:49.153Z,41.70
2024-03-02T11:33:51.252Z,35.70
2024-03-02T11:38:55.251Z,34.80
2024-03-02T11:43:57.435Z,44.30
2024-03-02T11:49:00.850Z,35.60
2024-03-02T11:54:04.163Z,31.00
2024-03-02T11:59:06.179Z,40.90
2024-03-02T12:04:08.554Z,31.80
2024-03-02T12:09:16.072Z,35.00
2024-03-02T12:14:18.340Z,28.80
2024-03-02T12:19:21.827Z,22.70
2024-03-02T12:24:25.993Z,31.20
2024-03-02T12:29:28.005Z,14.20
2024-03-02T12:34:30.127Z,20.50
2024-03-02T12:39:34.495Z,22.20
2024-03-02T12:44:36.688Z,16.80
2024-03-02T12:49:38.915Z,16.70
2024-03-02T12:54:41.022Z,15.80
2024-03-02T12:59:47.826Z,21.10
2024-03-02T13:04:55.998Z,14.90
2024-03-02T13:09:58.583Z,15.90
2024-03-02T13:15:00.586Z,16.90
2024-03-02T13:20:02.680Z,57.20
2024-03-02T13:25:05.788Z,26.30
2024-03-02T13:30:10.883Z,26.60
2024-03-02T13:35:13.012Z,25.80
2024-03-02T13:40:19.136Z,19.30
2024-03-02T13:45:21.062Z,26.60
2024-03-02T13:50:23.028Z,24.00
2024-03-02T13:55:25.320Z,34.20
2024-03-02T14:00:27.762Z,21.90
2024-03-02T14:05:29.796Z,27.00
2024-03-02T14:10:31.980Z,26.20
2024-03-02T14:15:41.536Z,26.10
2024-03-02T14:20:46.331Z,23.70
2024-03-02T14:25:49.378Z,23.10
2024-03-02T14:30:52.024Z,27.10
2024-03-02T14:35:54.079Z,29.00
2024-03-02T14:40:56.081Z,31.00
2024-03-02T14:45:58.838Z,29.50
2024-03-02T14:51:01.664Z,34.40
2024-03-02T14:56:07.646Z,32.40
2024-03-02T15:01:25.507Z,35.00
2024-03-02T15:06:45.915Z,32.30
2024-03-02T15:11:48.098Z,30.90
2024-03-02T15:16:50.814Z,31.90
2024-03-02T15:21:53.016Z,31.40
2024-03-02T15:26:55.573Z,35.50
2024-03-02T15:31:58.639Z,42.10
2024-03-02T15:37:01.623Z,46.10
2024-03-02T15:42:05.207Z,37.20
2024-03-02T15:47:09.034Z,39.40
2024-03-02T15:52:11.008Z,36.30
2024-03-02T15:57:13.906Z,28.90
2024-03-02T16:02:15.748Z,42.70
2024-03-02T16:07:17.713Z,50.10
2024-03-02T16:12:19.665Z,64.60
2024-03-02T16:17:21.653Z,59.70
2024-03-02T16:22:24.283Z,60.40
2024-03-02T16:27:26.243Z,58.70
2024-03-02T16:32:28.236Z,49.60
2024-03-02T16:37:30.494Z,63.00
2024-03-02T16:42:33.016Z,61.70
2024-03-02T16:47:34.956Z,64.30
2024-03-02T16:52:37.062Z,65.10
2024-03-02T16:57:39.065Z,74.20
2024-03-02T17:02:44.054Z,65.90
2024-03-02T17:07:45.825Z,68.70
2024-03-02T17:12:47.840Z,66.40
2024-03-02T17:17:49.872Z,69.50
2024-03-02T17:22:51.927Z,103.60
2024-03-02T17:28:29.514Z,90.50
2024-03-02T17:33:32.567Z,83.30
2024-03-02T17:38:34.549Z,82.00
2024-03-02T17:43:36.446Z,62.90
2024-03-02T17:48:38.521Z,69.70
2024-03-02T17:53:40.668Z,73.20
2024-03-02T17:58:42.553Z,81.80
2024-03-02T18:03:44.557Z,83.10
2024-03-02T18:08:46.516Z,94.80
2024-03-02T18:13:48.600Z,91.20
2024-03-02T18:18:50.933Z,113.80
2024-03-02T18:23:52.978Z,114.50
2024-03-02T18:28:54.880Z,90.80
2024-03-02T18:33:56.930Z,93.80
2024-03-02T18:38:59.436Z,71.70
2024-03-02T18:44:04.658Z,77.40
2024-03-02T18:49:07.133Z,100.10
2024-03-02T18:54:09.833Z,99.40
2024-03-02T18:59:11.688Z,103.20
2024-03-02T19:04:13.732Z,97.20
2024-03-02T19:09:16.483Z,83.10
2024-03-02T19:14:18.294Z,76.40
2024-03-02T19:19:20.246Z,108.30
2024-03-02T19:24:22.290Z,118.80
2024-03-02T19:29:29.721Z,122.00
2024-03-02T19:34:31.608Z,109.70
2024-03-02T19:39:37.437Z,102.00
2024-03-02T19:44:41.763Z,104.30
2024-03-02T19:49:43.673Z,126.60
2024-03-02T19:54:45.807Z,136.20
2024-03-02T19:59:47.773Z,122.20
2024-03-02T20:04:49.624Z,114.00
2024-03-02T20:09:52.019Z,106.20
2024-03-02T20:14:54.106Z,140.80
2024-03-02T20:19:56.409Z,200.20
2024-03-02T20:24:58.413Z,158.00
2024-03-02T20:30:17.549Z,125.70
2024-03-02T20:35:21.609Z,111.80
2024-03-02T20:40:23.697Z,135.10
2024-03-02T20:45:25.861Z,139.30
2024-03-02T20:50:27.934Z,117.00
2024-03-02T20:55:30.116Z,125.80
2024-03-02T21:00:32.331Z,120.90
2024-03-02T21:05:34.294Z,147.80
2024-03-02T21:10:36.374Z,107.20
2024-03-02T21:15:38.348Z,118.70
2024-03-02T21:20:40.373Z,140.80
2024-03-02T21:25:43.151Z,103.60
2024-03-02T21:30:45.355Z,108.70
2024-03-02T21:35:57.758Z,109.00
2024-03-02T21:40:59.669Z,119.30
2024-03-02T21:46:01.779Z,109.50
2024-03-02T21:51:04.137Z,100.70
2024-03-02T21:56:06.716Z,104.10
2024-03-02T22:01:08.764Z,132.90
2024-03-02T22:06:10.874Z,117.80
2024-03-02T22:11:14.630Z,114.20
2024-03-02T22:16:17.853Z,107.20
2024-03-02T22:21:19.999Z,98.20
2024-03-02T22:26:24.071Z,111.70
2024-03-02T22:31:26.108Z,128.70
2024-03-02T22:36:28.107Z,120.20
2024-03-02T22:41:30.419Z,131.90
2024-03-02T22:46:32.368Z,118.70
2024-03-02T22:51:34.404Z,113.60
2024-03-02T22:56:36.358Z,93.20
2024-03-02T23:01:40.852Z,89.20
2024-03-02T23:06:44.134Z,75.20
2024-03-02T23:11:46.198Z,96.40
2024-03-02T23:16:48.763Z,87.80
2024-03-02T23:21:51.212Z,80.80
2024-03-02T23:26:53.748Z,80.40
2024-03-02T23:31:55.689Z,70.20
2024-03-02T23:36:57.748Z,91.30
2024-03-02T23:41:59.697Z,84.40
2024-03-02T23:47:01.779Z,79.30
2024-03-02T23:52:03.784Z,78.90
2024-03-02T23:57:06.172Z,71.70
